METAR Data
IDs: Format: Raw Decoded Include TAF

Data at: 0817 UTC 07 Dec 2021

KSGJ 070756Z AUTO 24006KT 10SM CLR 18/17 A3004 RMK AO2 SLP170 T01830167
KSGJ 070656Z AUTO 24005KT 10SM CLR 18/17 A3004 RMK AO2 SLP173 T01780167
KSGJ 070556Z AUTO 26005KT 10SM CLR 18/16 A3006 RMK AO2 SLP177 T01830161 10217 20183 58013
KSGJ 070456Z AUTO 25005KT 10SM CLR 18/17 A3008 RMK AO2 SLP184 T01830167
KSGJ 070356Z AUTO 10SM CLR 18/17 A3010 RMK AO2 SLP191 T01830167 402670122
KSGJ 070256Z AUTO 29004KT 10SM CLR 19/17 A3010 RMK AO2 SLP190 T01890167 53007
KSGJ 070156Z AUTO 22004KT 10SM CLR 19/17 A3008 RMK AO2 SLP185 T01940167
KSGJ 070056Z 20003KT 10SM CLR 20/17 A3008 RMK AO2 SLP184 T02000172
KSGJ 062356Z 00000KT 10SM CLR 22/17 A3007 RMK AO2 SLP183 T02170172 10267 20217 51010
KSGJ 062256Z 26003KT 10SM BKN045 23/18 A3007 RMK AO2 SLP181 T02280178
KSGJ 062156Z 27004KT 10SM SCT043 24/17 A3006 RMK AO2 SLP176 T02440172
KSGJ 062056Z 27004KT 10SM FEW043 25/17 A3004 RMK AO2 SLP172 T02500172 56009
KSGJ 061956Z 25010KT 10SM FEW042 26/17 A3005 RMK AO2 SLP173 T02610167
KSGJ 061856Z 22009KT 10SM BKN038 26/18 A3005 RMK AO2 SLP175 T02610178
KSGJ 061756Z 24008KT 10SM CLR 26/17 A3007 RMK AO2 SLP181 T02610172 10261 20128 58031
KSGJ 061656Z 22007KT 190V260 10SM CLR 25/18 A3010 RMK AO2 SLP192 T02500178
KSGJ 061556Z 23007KT 10SM CLR 23/18 A3013 RMK AO2 SLP202 T02330183
KSGJ 061456Z 22004KT 5SM BR CLR 21/19 A3016 RMK AO2 SLP212 T02110189 51007
KSGJ 061356Z 00000KT 4SM BR CLR 17/16 A3015 RMK AO2 SLP209 T01670156
KSGJ 061256Z 00000KT 5SM BR FEW002 13/13 A3015 RMK AO2 SLP208 T01330128
KSGJ 061156Z 00000KT 5SM BR CLR 13/12 A3014 RMK AO2 SLP205 T01280122 10144 20122 53005
KSGJ 061056Z AUTO 00000KT 10SM FEW002 13/12 A3012 RMK AO2 SLP198 T01280122
KSGJ 060956Z AUTO 00000KT 10SM CLR 13/12 A3012 RMK AO2 SLP198 T01280122
KSGJ 060856Z AUTO 00000KT 10SM CLR 13/12 A3013 RMK AO2 SLP200 T01280122 56007
KSGJ 060756Z AUTO 00000KT 10SM CLR 13/12 A3013 RMK AO2 SLP200 T01330122
KSGJ 060656Z AUTO 00000KT 10SM CLR 13/13 A3013 RMK AO2 SLP203 T01330128
KSGJ 060556Z AUTO 25003KT 10SM FEW050 14/13 A3015 RMK AO2 SLP208 T01390133 10172 20133 58006
KSGJ 060456Z AUTO 00000KT 10SM CLR 14/13 A3016 RMK AO2 SLP212 T01390128
KSGJ 060356Z AUTO 00000KT 10SM CLR 14/13 A3017 RMK AO2 SLP216 T01440133 402060117
KSGJ 060256Z AUTO 00000KT 10SM CLR 15/14 A3017 RMK AO2 SLP214 T01500139 53005
KSGJ 060156Z AUTO 00000KT 10SM CLR 16/15 A3016 RMK AO2 SLP211 T01560150
KSGJ 060056Z 00000KT 7SM CLR 17/16 A3016 RMK AO2 SLP210 T01670156
KSGJ 052356Z 8SM CLR 17/17 A3015 RMK AO2 SLP209 T01720167 10206 20172 53005
KSGJ 052256Z 00000KT 10SM CLR 18/17 A3014 RMK AO2 SLP206 T01830172
KSGJ 052156Z 00000KT 10SM OVC055 19/17 A3014 RMK AO2 SLP205 T01940172
KSGJ 052056Z 08005KT 10SM CLR 20/16 A3014 RMK AO2 SLP204 T02000161 55009